Terminal Aerodrome Forecast
Issued by NWS Bismarck, ND

Home | Current Version | Previous Version | Graphics & Text | Print | Product List | Glossary On
Versions: 1 2 3 4 5 6 7 8 9 10 11 12 13 14 15 16 17
000
FTUS43 KBIS 271131
TAFBIS
TAF
KBIS 271131Z 2712/2812 36005KT P6SM BKN025
     FM271600 02008KT P6SM BKN050
     FM271800 02008KT P6SM FEW200
     FM280500 04004KT P6SM SKC=

USA.gov is the U.S. government's official web portal to all federal, state and local government web resources and services.